Latest Weather Observations for Gold Coast Seaway

IDQ60801

Issued at 9:35 am EST Sunday 21 September 2014 (issued every 30 minutes, with the page automatically refreshed every 10 minutes)

About weather observations | Map of weather stations | Latest weather observations for QLD | Other Formats
Station Details ID: 040764 Name: GOLD COAST SEAWAY Lat: -27.94 Lon: 153.43 Height: 2.98 m
Data from the previous 72 hours. | See also: Recent months at Gold Coast Seaway
Date/Time
EST
Temp
°C
App
Temp
°C
Dew
Point
Rel
Hum
%
Delta-T
°C
Wind Press
QNH
hPa
Press
MSL
hPa
Rain
since 9 am
mm
Dir
 
Spd
km/h
Gust
km/h
Spd
kts
Gust
kts
21/09:30am 21.2 15.0 11.5 54 5.4 S 35 43 19 23 1026.4 1026.4 0.0
21/09:00am 21.2 15.2 12.1 56 5.1 S 35 41 19 22 1026.4 1026.4 0.2
21/08:30am 20.3 14.7 11.5 57 4.9 S 32 39 17 21 1026.3 1026.3 0.2
21/08:00am 19.4 13.7 11.2 59 4.5 S 32 37 17 20 1026.1 1026.1 0.2
21/07:30am 18.3 14.4 10.9 62 4.0 S 22 33 12 18 1025.8 1025.8 0.2
21/07:00am 16.6 13.0 10.7 68 3.1 SSW 20 28 11 15 1025.6 1025.6 0.2
21/06:30am 15.8 12.3 10.3 70 2.9 S 19 24 10 13 1025.4 1025.4 0.2
21/06:00am 14.9 11.2 10.1 73 2.5 S 20 26 11 14 1025.1 1025.1 0.2
21/05:30am 13.8 12.0 9.6 76 2.1 SSW 9 11 5 6 1025.2 1025.2 0.2
21/05:00am 14.2 12.0 9.4 73 2.4 WSW 11 13 6 7 1024.7 1024.7 0.2
21/04:30am 14.3 12.6 9.7 74 2.4 SW 9 13 5 7 1024.3 1024.3 0.2
21/04:00am 14.2 12.8 9.6 74 2.4 SW 7 13 4 7 1024.0 1024.0 0.2
21/03:30am 14.6 12.8 9.4 71 2.7 SW 9 13 5 7 1023.8 1023.8 0.2
21/03:00am 15.0 12.9 9.6 70 2.8 SW 11 13 6 7 1023.9 1023.9 0.2
21/02:30am 15.0 13.2 9.6 70 2.8 WSW 9 11 5 6 1024.2 1024.2 0.2
21/02:00am 14.8 13.0 9.4 70 2.8 SW 9 13 5 7 1024.2 1024.2 0.2
21/01:30am 15.2 12.5 9.1 67 3.1 SSW 13 20 7 11 1024.5 1024.5 0.2
21/01:00am 15.6 11.7 9.3 66 3.2 S 20 28 11 15 1024.6 1024.6 0.2
21/12:30am 15.6 11.9 9.3 66 3.2 S 19 24 10 13 1024.8 1024.8 0.2
21/12:00am 15.8 12.9 9.5 66 3.2 S 15 19 8 10 1024.9 1024.9 0.2
 
Date/Time
EST
Temp
°C
App
Temp
°C
Dew
Point
Rel
Hum
%
Delta-T
°C
Wind Press
QNH
hPa
Press
MSL
hPa
Rain
since 9 am
mm
Dir
 
Spd
km/h
Gust
km/h
Spd
kts
Gust
kts
20/11:30pm 16.2 12.0 9.8 66 3.3 S 22 28 12 15 1024.7 1024.7 0.2
20/11:00pm 16.7 11.8 9.9 64 3.6 S 26 30 14 16 1024.6 1024.6 0.2
20/10:30pm 17.2 12.3 10.1 63 3.8 S 26 32 14 17 1024.5 1024.5 0.2
20/10:00pm 17.4 13.5 9.3 59 4.2 S 20 28 11 15 1024.7 1024.7 0.2
20/09:30pm 18.8 13.5 11.1 61 4.2 SE 30 33 16 18 1024.5 1024.5 0.2
20/09:00pm 18.7 13.4 11.3 62 4.0 SE 30 35 16 19 1024.5 1024.5 0.2
20/08:30pm 18.7 12.9 10.8 60 4.3 SE 32 37 17 20 1024.2 1024.2 0.2
20/08:00pm 18.8 12.4 10.6 59 4.4 SSE 35 43 19 23 1023.8 1023.8 0.2
20/07:30pm 18.9 13.3 12.2 65 3.7 SE 33 41 18 22 1023.3 1023.3 0.2
20/07:00pm 19.1 13.7 12.1 64 3.9 SSE 32 37 17 20 1023.0 1023.0 0.2
20/06:30pm 19.0 13.5 12.0 64 3.9 SSE 32 39 17 21 1022.5 1022.5 0.2
20/06:00pm 19.0 13.4 11.6 62 4.1 SSE 32 39 17 21 1022.1 1022.1 0.2
20/05:30pm 19.0 13.5 12.0 64 3.9 SSE 32 37 17 20 1021.5 1021.5 0.2
20/05:00pm 19.1 14.0 11.9 63 4.0 SSE 30 37 16 20 1021.0 1021.0 0.2
20/04:30pm 20.0 14.5 12.3 61 4.3 SSE 33 39 18 21 1020.1 1020.1 0.2
20/04:00pm 19.7 14.1 12.0 61 4.3 SSE 33 41 18 22 1020.1 1020.1 0.2
20/03:30pm 20.9 15.3 12.1 57 4.9 SSE 33 41 18 22 1019.9 1019.9 0.2
20/03:00pm 21.4 15.9 12.5 57 5.0 SSE 33 39 18 21 1019.6 1019.6 0.2
20/02:30pm 21.0 15.7 12.4 58 4.8 SE 32 37 17 20 1019.6 1019.6 0.2
20/02:00pm 20.6 15.1 11.8 57 4.9 SE 32 37 17 20 1019.7 1019.7 0.2
20/01:30pm 21.8 16.7 13.2 58 4.9 SE 32 37 17 20 1019.7 1019.7 0.2
20/01:00pm 21.5 16.7 12.9 58 4.9 SE 30 35 16 19 1020.1 1020.1 0.2
20/12:30pm 21.9 16.9 13.3 58 4.9 SSE 32 37 17 20 1020.4 1020.4 0.2
20/12:00pm 21.9 17.8 13.8 60 4.7 SE 28 33 15 18 1020.8 1020.8 0.2
20/11:30am 21.3 16.6 13.2 60 4.6 SSE 30 35 16 19 1021.2 1021.2 0.2
20/11:00am 21.5 19.0 15.1 67 3.8 SSE 22 28 12 15 1021.7 1021.7 0.2
20/10:30am 20.2 16.9 13.9 67 3.6 SSE 24 30 13 16 1022.1 1022.1 0.2
20/10:00am 20.2 16.7 14.6 70 3.3 SSE 26 32 14 17 1022.2 1022.2 0.2
20/09:30am 19.9 15.5 15.1 74 2.8 S 32 37 17 20 1022.2 1022.2 0.0
20/09:00am 19.4 14.2 14.6 74 2.8 S 35 41 19 22 1022.4 1022.4 6.4
20/08:30am 18.3 13.7 14.6 79 2.1 S 32 37 17 20 1022.2 1022.2 6.4
20/08:00am 18.0 13.0 14.1 78 2.2 S 33 39 18 21 1021.9 1021.9 6.4
20/07:30am 17.9 13.0 14.2 79 2.1 S 33 41 18 22 1021.4 1021.4 6.4
20/07:00am 17.1 13.1 14.0 82 1.8 S 28 33 15 18 1021.1 1021.1 6.4
20/06:30am 16.7 13.3 13.6 82 1.7 S 24 33 13 18 1020.6 1020.6 6.4
20/06:00am 16.2 13.3 13.9 86 1.3 S 22 30 12 16 1020.1 1020.1 6.4
20/05:30am 16.6 10.7 14.8 89 1.0 S 39 48 21 26 1019.7 1019.7 6.4
20/05:00am 16.1 13.1 15.9 99 0.1 S 26 33 14 18 1019.2 1019.2 6.4
20/04:30am 14.8 13.3 14.2 96 0.3 S 15 19 8 10 1018.7 1018.7 6.4
20/04:00am 15.4 15.8 14.8 96 0.3 SW 6 9 3 5 1018.2 1018.2 6.4
20/03:30am 15.8 16.2 14.8 94 0.6 SW 6 9 3 5 1018.0 1018.0 6.4
20/03:00am 15.5 15.2 14.4 93 0.6 SSW 9 11 5 6 1018.2 1018.2 6.4
20/02:30am 15.9 15.5 15.1 95 0.5 WSW 11 17 6 9 1018.3 1018.3 6.4
20/02:00am 15.9 16.3 15.3 96 0.3 SSW 7 11 4 6 1018.5 1018.5 6.4
20/01:30am 16.0 16.3 15.0 94 0.6 WNW 7 9 4 5 1018.6 1018.6 6.2
20/01:00am 15.7 15.8 14.4 92 0.7 W 7 11 4 6 1018.8 1018.8 5.8
20/12:30am 16.1 15.5 14.6 91 0.9 NNW 11 15 6 8 1019.0 1019.0 5.8
20/12:00am 16.1 16.7 14.3 89 1.0 WSW 4 9 2 5 1019.3 1019.3 5.8
 
Date/Time
EST
Temp
°C
App
Temp
°C
Dew
Point
Rel
Hum
%
Delta-T
°C
Wind Press
QNH
hPa
Press
MSL
hPa
Rain
since 9 am
mm
Dir
 
Spd
km/h
Gust
km/h
Spd
kts
Gust
kts
19/11:30pm 16.0 16.0 14.2 89 1.0 WSW 7 9 4 5 1019.4 1019.4 5.8
19/11:00pm 15.9 15.6 13.2 84 1.5 WSW 7 7 4 4 1019.4 1019.4 5.8
19/10:30pm 16.7 16.1 13.6 82 1.7 SW 9 13 5 7 1019.7 1019.7 5.8
19/10:00pm 19.1 17.9 13.9 72 3.0 NNE 13 19 7 10 1019.7 1019.7 0.2
19/09:30pm 19.1 18.0 13.1 68 3.4 NNW 11 13 6 7 1019.8 1019.8 0.0
19/09:00pm 19.6 16.6 12.6 64 3.9 N 20 24 11 13 1019.6 1019.6 0.0
19/08:30pm 19.6 15.8 12.4 63 4.0 NNE 24 28 13 15 1019.4 1019.4 0.0
19/08:00pm 19.6 16.8 13.1 66 3.7 NNE 20 26 11 14 1019.3 1019.3 0.0
19/07:30pm 19.7 16.6 12.2 62 4.2 NNE 20 26 11 14 1019.2 1019.2 0.0
19/07:00pm 19.7 16.7 12.5 63 4.0 NNE 20 26 11 14 1018.9 1018.9 0.0
19/06:30pm 19.8 16.9 12.8 64 3.9 NNE 20 26 11 14 1018.4 1018.4 0.0
19/06:00pm 19.9 16.5 12.4 62 4.2 NE 22 26 12 14 1017.8 1017.8 0.0
19/05:30pm 20.2 16.7 13.4 65 3.9 NNE 24 28 13 15 1017.4 1017.4 0.0
19/05:00pm 20.7 16.6 12.7 60 4.5 NE 26 30 14 16 1017.0 1017.0 0.0
19/04:30pm 21.2 17.2 12.9 59 4.7 NE 26 32 14 17 1017.0 1017.0 0.0
19/04:00pm 21.5 17.3 12.4 56 5.1 NE 26 32 14 17 1016.6 1016.6 0.0
19/03:30pm 21.8 16.6 11.5 52 5.7 NE 30 35 16 19 1016.6 1016.6 0.0
19/03:00pm 22.2 17.7 11.3 50 6.1 NE 26 30 14 16 1016.7 1016.7 0.0
19/02:30pm 22.7 18.9 11.1 48 6.4 NE 22 28 12 15 1017.1 1017.1 0.0
19/02:00pm 23.0 19.2 11.1 47 6.6 NE 22 28 12 15 1017.4 1017.4 0.0
19/01:30pm 23.4 20.5 13.0 52 6.0 ENE 20 26 11 14 1017.7 1017.7 0.0
19/01:00pm 22.6 20.5 13.7 57 5.2 E 17 20 9 11 1018.3 1018.3 0.0
19/12:30pm 22.6 19.9 12.8 54 5.6 E 19 22 10 12 1018.8 1018.8 0.0
19/12:00pm 22.9 20.4 12.2 51 6.0 E 17 22 9 12 1019.3 1019.3 0.0
19/11:30am 22.9 20.1 11.3 48 6.5 E 17 19 9 10 1019.8 1019.8 0.0
19/11:00am 22.9 20.6 11.9 50 6.2 ESE 15 15 8 8 1020.3 1020.3 0.0
19/10:30am 23.0 21.3 12.6 52 5.9 SE 13 15 7 8 1020.7 1020.7 0.0
19/10:00am 22.1 20.3 12.1 53 5.6 SE 13 15 7 8 1021.0 1021.0 0.0
19/09:30am 22.2 20.0 10.7 48 6.3 SSE 13 15 7 8 1021.4 1021.4 0.0
19/09:00am 20.8 18.0 10.0 50 5.8 SSE 15 17 8 9 1021.5 1021.5 0.0
19/08:30am 20.2 18.0 9.2 49 5.8 S 11 13 6 7 1021.4 1021.4 0.0
19/08:00am 18.7 17.3 8.9 53 5.1 SW 6 9 3 5 1021.3 1021.3 0.0
19/07:30am 17.0 15.6 9.4 61 4.0 SW 7 9 4 5 1021.2 1021.2 0.0
19/07:00am 15.3 13.4 9.2 67 3.1 SW 9 11 5 6 1020.9 1020.9 0.0
19/06:30am 13.9 12.1 9.5 75 2.3 WSW 9 11 5 6 1020.4 1020.4 0.0
19/06:00am 13.1 10.8 9.0 76 2.1 SW 11 15 6 8 1020.3 1020.3 0.0
19/05:30am 13.0 10.3 9.1 77 2.0 SW 13 15 7 8 1020.2 1020.2 0.0
19/05:00am 13.1 10.5 9.2 77 2.0 WSW 13 13 7 7 1019.9 1019.9 0.0
19/04:30am 13.2 11.3 8.9 75 2.2 WSW 9 13 5 7 1019.4 1019.4 0.0
19/04:00am 13.2 10.9 8.9 75 2.2 WSW 11 13 6 7 1019.2 1019.2 0.0
19/03:30am 13.4 11.0 8.5 72 2.4 W 11 11 6 6 1018.9 1018.9 0.0
19/03:00am 13.5 11.1 8.8 73 2.4 WSW 11 13 6 7 1018.9 1018.9 0.0
19/02:30am 13.7 10.9 8.7 72 2.5 SW 13 15 7 8 1018.9 1018.9 0.0
19/02:00am 13.6 10.5 8.7 72 2.5 SW 15 17 8 9 1019.1 1019.1 0.0
19/01:30am 13.7 11.3 8.5 71 2.6 SW 11 13 6 7 1019.5 1019.5 0.0
19/01:00am 13.5 12.0 8.4 71 2.5 SSW 6 9 3 5 1019.6 1019.6 0.0
19/12:30am 14.0 11.2 8.4 69 2.8 SSW 13 17 7 9 1019.9 1019.9 0.0
19/12:00am 14.4 11.6 8.6 68 2.9 SW 13 17 7 9 1020.1 1020.1 0.0
 
Date/Time
EST
Temp
°C
App
Temp
°C
Dew
Point
Rel
Hum
%
Delta-T
°C
Wind Press
QNH
hPa
Press
MSL
hPa
Rain
since 9 am
mm
Dir
 
Spd
km/h
Gust
km/h
Spd
kts
Gust
kts
18/11:30pm 14.4 11.6 8.4 67 3.0 SW 13 17 7 9 1020.2 1020.2 0.0
18/11:00pm 14.5 12.5 8.5 67 3.0 SW 9 13 5 7 1020.2 1020.2 0.0
18/10:30pm 15.2 13.3 8.9 66 3.2 W 9 13 5 7 1020.1 1020.1 0.0
18/10:00pm 15.4 13.5 8.9 65 3.3 WSW 9 9 5 5 1020.0 1020.0 0.0
18/09:30pm 15.4 13.8 8.9 65 3.3 WSW 7 11 4 6 1019.9 1019.9 0.0
18/09:00pm 16.3 14.4 9.0 62 3.7 WSW 9 15 5 8 1019.7 1019.7 0.0
18/08:30pm 16.7 14.4 7.6 55 4.6 NE 9 11 5 6 1019.3 1019.3 0.0
18/08:00pm 18.3 15.8 8.0 51 5.2 ENE 11 13 6 7 1019.1 1019.1 0.0
18/07:30pm 19.0 16.4 9.2 53 5.1 E 13 15 7 8 1018.7 1018.7 0.0
18/07:00pm 18.9 16.0 8.3 50 5.5 E 13 17 7 9 1018.1 1018.1 0.0
18/06:30pm 18.9 15.9 7.7 48 5.7 ESE 13 15 7 8 1017.8 1017.8 0.0
18/06:00pm 19.2 15.9 8.2 49 5.7 E 15 19 8 10 1017.5 1017.5 0.0
18/05:30pm 19.5 15.9 8.5 49 5.7 ESE 17 19 9 10 1017.1 1017.1 0.0
18/05:00pm 20.2 16.3 8.8 48 6.0 ESE 19 22 10 12 1016.9 1016.9 0.0
18/04:30pm 21.0 17.1 8.6 45 6.5 ESE 19 22 10 12 1016.6 1016.6 0.0
18/04:00pm 21.2 16.0 7.4 41 7.1 ESE 24 28 13 15 1016.0 1016.0 0.0
18/03:30pm 22.1 17.3 8.9 43 7.0 ESE 24 28 13 15 1015.9 1015.9 0.0
18/03:00pm 22.4 17.9 8.5 41 7.3 E 22 28 12 15 1015.6 1015.6 0.0
18/02:30pm 22.5 17.7 7.5 38 7.8 E 22 28 12 15 1015.8 1015.8 0.0
18/02:00pm 22.9 17.8 7.8 38 7.9 E 24 28 13 15 1015.8 1015.8 0.0
18/01:30pm 23.7 19.8 7.3 35 8.6 E 17 20 9 11 1016.1 1016.1 0.0
18/01:00pm 23.8 19.8 8.2 37 8.3 E 19 22 10 12 1016.2 1016.2 0.0
18/12:30pm 24.2 20.5 7.8 35 8.7 E 17 22 9 12 1016.6 1016.6 0.0
18/12:00pm 23.7 20.6 7.3 35 8.5 E 13 17 7 9 1017.2 1017.2 0.0
18/11:30am 23.7 20.3 6.0 32 9.0 E 13 17 7 9 1017.5 1017.5 0.0
18/11:00am 23.6 20.2 6.0 32 8.9 E 13 15 7 8 1018.0 1018.0 0.0
18/10:30am 23.4 19.1 5.3 31 9.1 ESE 17 19 9 10 1018.3 1018.3 0.0
18/10:00am 23.1 19.2 5.5 32 8.8 SE 15 17 8 9 1018.5 1018.5 0.0

Other Formats:

Comma delimited format used in spreadsheet applications
http://www.bom.gov.au/fwo/IDQ60801/IDQ60801.94580.axf

JavaScript Object Notation format (JSON) in row-major order
http://www.bom.gov.au/fwo/IDQ60801/IDQ60801.94580.json